createdAt,value
2022-11-09T00:00:12.885Z,7.423401
2022-11-09T00:01:22.663Z,7.403259
2022-11-09T00:02:31.464Z,7.362976
2022-11-09T00:03:41.183Z,7.352905
2022-11-09T00:04:50.945Z,7.352905
2022-11-09T00:05:59.848Z,7.332764
2022-11-09T00:07:09.633Z,7.352905
2022-11-09T00:08:19.314Z,7.352905
2022-11-09T00:09:27.137Z,7.383118
2022-11-09T00:10:36.812Z,7.383118
2022-11-09T00:11:47.571Z,7.383118
2022-11-09T00:12:57.314Z,7.383118
2022-11-09T00:14:07.042Z,7.393188
2022-11-09T00:15:14.801Z,7.383118
2022-11-09T00:16:24.532Z,7.383118
2022-11-09T00:17:33.415Z,7.393188
2022-11-09T00:18:41.176Z,7.423401
2022-11-09T00:19:50.942Z,7.473755
2022-11-09T00:20:58.767Z,7.54425
2022-11-09T00:22:07.571Z,7.634888
2022-11-09T00:23:17.829Z,7.695312
2022-11-09T00:24:25.072Z,7.745667
2022-11-09T00:25:34.779Z,7.755737
2022-11-09T00:26:43.572Z,7.745667
2022-11-09T00:27:52.341Z,7.745667
2022-11-09T00:29:02.105Z,7.725525
2022-11-09T00:30:09.881Z,7.695312
2022-11-09T00:31:18.549Z,7.685242
2022-11-09T00:32:28.286Z,7.655029
2022-11-09T00:33:36.980Z,7.604675
2022-11-09T00:34:45.736Z,7.604675
2022-11-09T00:35:54.473Z,7.584534
2022-11-09T00:37:03.311Z,7.604675
2022-11-09T00:38:13.082Z,7.614746
2022-11-09T00:39:22.952Z,7.614746
2022-11-09T00:40:31.696Z,7.614746
2022-11-09T00:41:41.431Z,7.614746
2022-11-09T00:42:50.191Z,7.604675
2022-11-09T00:43:58.977Z,7.584534
2022-11-09T00:45:08.684Z,7.574463
2022-11-09T00:46:16.512Z,7.584534
2022-11-09T00:47:25.187Z,7.54425
2022-11-09T00:48:34.933Z,7.54425
2022-11-09T00:49:43.684Z,7.53418
2022-11-09T00:50:53.442Z,7.564392
2022-11-09T00:52:03.237Z,7.574463
2022-11-09T00:53:11.956Z,7.634888
2022-11-09T00:54:21.689Z,7.634888
2022-11-09T00:55:28.424Z,7.604675
2022-11-09T00:56:37.173Z,7.604675
2022-11-09T00:57:48.004Z,7.584534
2022-11-09T00:58:56.866Z,7.584534
2022-11-09T01:00:06.616Z,7.614746
2022-11-09T01:01:16.366Z,7.655029
2022-11-09T01:02:27.071Z,7.725525
2022-11-09T01:03:36.948Z,7.755737
2022-11-09T01:04:44.698Z,7.816162
2022-11-09T01:05:53.446Z,7.826233
2022-11-09T01:07:03.308Z,7.866516
2022-11-09T01:08:12.059Z,7.846375
2022-11-09T01:09:21.926Z,7.816162
2022-11-09T01:10:31.676Z,7.765808
2022-11-09T01:11:38.424Z,7.745667
2022-11-09T01:12:48.128Z,7.715454
2022-11-09T01:13:56.872Z,7.695312
2022-11-09T01:15:06.644Z,7.6651
2022-11-09T01:16:16.429Z,7.634888
2022-11-09T01:17:26.096Z,7.634888
2022-11-09T01:18:35.873Z,7.604675
2022-11-09T01:19:45.574Z,7.614746
2022-11-09T01:20:54.337Z,7.614746
2022-11-09T01:22:04.089Z,7.614746
2022-11-09T01:23:11.830Z,7.614746
2022-11-09T01:24:21.703Z,7.634888
2022-11-09T01:25:31.545Z,7.655029
2022-11-09T01:26:39.248Z,7.655029
2022-11-09T01:27:49.017Z,7.6651
2022-11-09T01:28:58.716Z,7.695312
2022-11-09T01:30:06.477Z,7.725525
2022-11-09T01:31:16.179Z,7.745667
2022-11-09T01:32:23.943Z,7.755737
2022-11-09T01:33:33.689Z,7.745667
2022-11-09T01:34:43.463Z,7.745667
2022-11-09T01:35:51.208Z,7.725525
2022-11-09T01:37:01.006Z,7.685242
2022-11-09T01:38:09.758Z,7.655029
2022-11-09T01:39:17.469Z,7.634888
2022-11-09T01:40:27.247Z,7.604675
2022-11-09T01:41:36.063Z,7.564392
2022-11-09T01:42:44.778Z,7.54425
2022-11-09T01:43:53.596Z,7.483826
2022-11-09T01:45:01.351Z,7.483826
2022-11-09T01:46:11.092Z,7.453613
2022-11-09T01:47:20.840Z,7.403259
2022-11-09T01:48:28.570Z,7.403259
2022-11-09T01:49:38.256Z,7.362976
2022-11-09T01:50:45.960Z,7.352905
2022-11-09T01:51:55.719Z,7.332764
2022-11-09T01:53:05.507Z,7.322693
2022-11-09T01:54:13.226Z,7.312622
2022-11-09T01:55:22.987Z,7.29248
2022-11-09T01:56:32.729Z,7.252197
2022-11-09T01:57:41.440Z,7.242126
2022-11-09T01:58:51.219Z,7.201843
2022-11-09T01:59:59.016Z,7.171631
2022-11-09T02:01:08.900Z,7.171631
2022-11-09T02:02:18.602Z,7.141418
2022-11-09T02:03:28.434Z,7.141418
2022-11-09T02:04:38.215Z,7.131348
2022-11-09T02:05:47.883Z,7.131348
2022-11-09T02:06:56.836Z,7.141418
2022-11-09T02:08:06.474Z,7.111206
2022-11-09T02:09:15.247Z,7.111206
2022-11-09T02:10:24.006Z,7.101135
2022-11-09T02:11:31.699Z,7.111206
2022-11-09T02:12:40.567Z,7.131348
2022-11-09T02:13:50.352Z,7.111206
2022-11-09T02:14:59.027Z,7.101135
2022-11-09T02:16:07.700Z,7.070923
2022-11-09T02:17:17.391Z,7.050781
2022-11-09T02:18:26.146Z,7.03064
2022-11-09T02:19:34.853Z,6.990356
2022-11-09T02:20:44.618Z,6.970215
2022-11-09T02:21:54.321Z,6.950073
2022-11-09T02:23:04.120Z,6.879578
2022-11-09T02:24:12.842Z,6.879578
2022-11-09T02:25:20.575Z,6.849365
2022-11-09T02:26:30.289Z,6.839294
2022-11-09T02:27:38.973Z,6.78894
2022-11-09T02:28:47.726Z,6.77887
2022-11-09T02:29:57.485Z,6.748657
2022-11-09T02:31:06.227Z,6.718445
2022-11-09T02:32:15.992Z,6.738586
2022-11-09T02:33:25.739Z,6.688232
2022-11-09T02:34:35.513Z,6.668091
2022-11-09T02:35:45.286Z,6.627808
2022-11-09T02:36:55.059Z,6.627808
2022-11-09T02:38:04.724Z,6.627808
2022-11-09T02:39:14.458Z,6.627808
2022-11-09T02:40:23.178Z,6.627808
2022-11-09T02:41:32.976Z,6.637878
2022-11-09T02:42:41.749Z,6.698303
2022-11-09T02:43:50.454Z,6.718445
2022-11-09T02:45:00.220Z,6.698303
2022-11-09T02:46:10.034Z,6.718445
2022-11-09T02:47:18.754Z,6.738586
2022-11-09T02:48:28.472Z,6.698303
2022-11-09T02:49:38.258Z,6.65802
2022-11-09T02:50:48.087Z,6.627808
2022-11-09T02:51:57.856Z,6.567383
2022-11-09T02:53:07.632Z,6.506958
2022-11-09T02:54:16.348Z,6.506958
2022-11-09T02:55:26.168Z,6.517029
2022-11-09T02:56:34.890Z,6.506958
2022-11-09T02:57:44.602Z,6.486816
2022-11-09T02:58:53.369Z,6.476746
2022-11-09T03:00:01.113Z,6.486816
2022-11-09T03:01:09.892Z,6.506958
2022-11-09T03:02:18.541Z,6.476746
2022-11-09T03:03:27.364Z,6.486816
2022-11-09T03:04:37.167Z,6.476746
2022-11-09T03:05:45.847Z,6.486816
2022-11-09T03:06:55.621Z,6.506958
2022-11-09T03:08:05.372Z,6.456604
2022-11-09T03:09:15.117Z,6.446533
2022-11-09T03:10:24.909Z,6.436462
2022-11-09T03:11:32.630Z,6.446533
2022-11-09T03:12:41.381Z,6.446533
2022-11-09T03:13:51.170Z,6.446533
2022-11-09T03:14:58.797Z,6.446533
2022-11-09T03:16:08.601Z,6.456604
2022-11-09T03:17:17.337Z,6.446533
2022-11-09T03:18:26.099Z,6.486816
2022-11-09T03:19:35.893Z,6.506958
2022-11-09T03:20:43.723Z,6.517029
2022-11-09T03:21:52.503Z,6.476746
2022-11-09T03:23:02.274Z,6.486816
2022-11-09T03:24:09.985Z,6.456604
2022-11-09T03:25:19.646Z,6.446533
2022-11-09T03:26:28.378Z,6.446533
2022-11-09T03:27:36.166Z,6.446533
2022-11-09T03:28:44.899Z,6.456604
2022-11-09T03:29:53.646Z,6.557312
2022-11-09T03:31:03.380Z,6.65802
2022-11-09T03:32:13.121Z,6.637878
2022-11-09T03:33:22.068Z,6.637878
2022-11-09T03:34:31.608Z,6.627808
2022-11-09T03:35:41.386Z,6.597595
2022-11-09T03:36:50.106Z,6.567383
2022-11-09T03:37:59.788Z,6.517029
2022-11-09T03:39:08.512Z,6.446533
2022-11-09T03:40:18.301Z,6.376038
2022-11-09T03:41:27.997Z,6.376038
2022-11-09T03:42:35.776Z,6.345825
2022-11-09T03:43:44.520Z,6.376038
2022-11-09T03:44:53.304Z,6.40625
2022-11-09T03:46:02.080Z,6.40625
2022-11-09T03:47:11.761Z,6.416321
2022-11-09T03:48:20.437Z,6.436462
2022-11-09T03:49:30.144Z,6.476746
2022-11-09T03:50:39.851Z,6.486816
2022-11-09T03:51:48.538Z,6.506958
2022-11-09T03:52:58.269Z,6.506958
2022-11-09T03:54:07.033Z,6.456604
2022-11-09T03:55:14.766Z,6.446533
2022-11-09T03:56:24.608Z,6.376038
2022-11-09T03:57:34.260Z,6.345825
2022-11-09T03:58:42.992Z,6.295471
2022-11-09T03:59:52.738Z,6.27533
2022-11-09T04:01:01.567Z,6.265259
2022-11-09T04:02:11.369Z,6.265259
2022-11-09T04:03:20.229Z,6.255188
2022-11-09T04:04:27.746Z,6.27533
2022-11-09T04:05:37.545Z,6.295471
2022-11-09T04:06:46.313Z,6.27533
2022-11-09T04:07:54.918Z,6.27533
2022-11-09T04:09:03.567Z,6.305542
2022-11-09T04:10:12.240Z,6.325684
2022-11-09T04:11:21.917Z,6.355896
2022-11-09T04:12:31.627Z,6.376038
2022-11-09T04:13:41.292Z,6.40625
2022-11-09T04:14:51.026Z,6.436462
2022-11-09T04:15:59.704Z,6.456604
2022-11-09T04:17:08.396Z,6.486816
2022-11-09T04:18:18.181Z,6.506958
2022-11-09T04:19:25.999Z,6.517029
2022-11-09T04:20:35.711Z,6.557312
2022-11-09T04:21:44.458Z,6.587524
2022-11-09T04:22:52.152Z,6.65802
2022-11-09T04:24:01.923Z,6.698303
2022-11-09T04:25:10.708Z,6.738586
2022-11-09T04:26:19.458Z,6.77887
2022-11-09T04:27:28.173Z,6.809082
2022-11-09T04:28:35.962Z,6.809082
2022-11-09T04:29:45.619Z,6.849365
2022-11-09T04:30:55.453Z,6.869507
2022-11-09T04:32:04.248Z,6.849365
2022-11-09T04:33:14.004Z,6.869507
2022-11-09T04:34:22.961Z,6.919861
2022-11-09T04:35:31.675Z,6.950073
2022-11-09T04:36:41.448Z,7.000427
2022-11-09T04:37:49.171Z,7.020569
2022-11-09T04:38:58.882Z,7.000427
2022-11-09T04:40:07.626Z,7.020569
2022-11-09T04:41:17.404Z,7.03064
2022-11-09T04:42:27.250Z,7.060852
2022-11-09T04:43:35.033Z,7.101135
2022-11-09T04:44:42.792Z,7.131348
2022-11-09T04:45:52.478Z,7.141418
2022-11-09T04:47:02.132Z,7.171631
2022-11-09T04:48:08.882Z,7.151489
2022-11-09T04:49:18.631Z,7.141418
2022-11-09T04:50:27.390Z,7.141418
2022-11-09T04:51:36.247Z,7.141418
2022-11-09T04:52:45.919Z,7.141418
2022-11-09T04:53:53.719Z,7.131348
2022-11-09T04:55:03.400Z,7.131348
2022-11-09T04:56:12.178Z,7.070923
2022-11-09T04:57:20.966Z,7.070923
2022-11-09T04:58:30.774Z,7.050781
2022-11-09T04:59:39.503Z,7.020569
2022-11-09T05:00:48.183Z,7.000427
2022-11-09T05:01:57.936Z,6.990356
2022-11-09T05:03:05.679Z,6.970215
2022-11-09T05:04:15.578Z,6.960144
2022-11-09T05:05:25.222Z,6.960144
2022-11-09T05:06:34.017Z,6.960144
2022-11-09T05:07:43.655Z,6.960144
2022-11-09T05:08:52.470Z,6.919861
2022-11-09T05:10:02.301Z,6.950073
2022-11-09T05:11:12.147Z,6.919861
2022-11-09T05:12:20.889Z,6.929932
2022-11-09T05:13:30.670Z,6.929932
2022-11-09T05:14:39.434Z,6.919861
2022-11-09T05:15:47.184Z,6.929932
2022-11-09T05:16:58.022Z,6.950073
2022-11-09T05:18:07.721Z,6.960144
2022-11-09T05:19:16.478Z,6.960144
2022-11-09T05:20:27.137Z,6.970215
2022-11-09T05:21:35.925Z,6.990356
2022-11-09T05:22:45.807Z,7.03064
2022-11-09T05:23:55.622Z,7.020569
2022-11-09T05:25:03.418Z,7.050781
2022-11-09T05:26:13.223Z,7.060852
2022-11-09T05:27:21.919Z,7.060852
2022-11-09T05:28:31.642Z,7.060852
2022-11-09T05:29:41.408Z,7.070923
2022-11-09T05:30:49.117Z,7.060852
2022-11-09T05:31:57.917Z,7.060852
2022-11-09T05:33:06.705Z,7.101135
2022-11-09T05:34:16.489Z,7.060852
2022-11-09T05:35:26.214Z,7.050781
2022-11-09T05:36:34.943Z,7.050781
2022-11-09T05:37:43.660Z,7.020569
2022-11-09T05:38:53.383Z,7.020569
2022-11-09T05:40:02.122Z,6.970215
2022-11-09T05:41:11.857Z,6.960144
2022-11-09T05:42:21.617Z,6.950073
2022-11-09T05:43:31.414Z,6.919861
2022-11-09T05:44:41.256Z,6.879578
2022-11-09T05:45:49.032Z,6.869507
2022-11-09T05:46:57.775Z,6.839294
2022-11-09T05:48:07.605Z,6.819153
2022-11-09T05:49:17.356Z,6.78894
2022-11-09T05:50:27.092Z,6.78894
2022-11-09T05:51:36.886Z,6.768799
2022-11-09T05:52:44.584Z,6.748657
2022-11-09T05:53:54.322Z,6.698303
2022-11-09T05:55:02.047Z,6.718445
2022-11-09T05:56:11.028Z,6.688232
2022-11-09T05:57:20.950Z,6.637878
2022-11-09T05:58:29.700Z,6.637878
2022-11-09T05:59:39.447Z,6.627808
2022-11-09T06:00:48.197Z,6.597595
2022-11-09T06:01:55.968Z,6.617737
2022-11-09T06:03:05.766Z,6.587524
2022-11-09T06:04:13.463Z,6.597595
2022-11-09T06:05:22.241Z,6.587524
2022-11-09T06:06:33.063Z,6.567383
2022-11-09T06:07:40.742Z,6.587524
2022-11-09T06:08:50.448Z,6.587524
2022-11-09T06:10:00.241Z,6.597595
2022-11-09T06:11:07.946Z,6.587524
2022-11-09T06:12:18.675Z,6.597595
2022-11-09T06:13:27.461Z,6.617737
2022-11-09T06:14:35.245Z,6.617737
2022-11-09T06:15:44.942Z,6.627808
2022-11-09T06:16:53.683Z,6.65802
2022-11-09T06:18:03.446Z,6.668091
2022-11-09T06:19:12.220Z,6.688232
2022-11-09T06:20:21.103Z,6.698303
2022-11-09T06:21:30.874Z,6.688232
2022-11-09T06:22:39.551Z,6.698303
2022-11-09T06:23:48.305Z,6.698303
2022-11-09T06:24:58.109Z,6.698303
2022-11-09T06:26:07.951Z,6.718445
2022-11-09T06:27:17.701Z,6.738586
2022-11-09T06:28:26.464Z,6.738586
2022-11-09T06:29:35.193Z,6.768799
2022-11-09T06:30:45.056Z,6.78894
2022-11-09T06:31:53.798Z,6.839294
2022-11-09T06:33:02.560Z,6.849365
2022-11-09T06:34:12.254Z,6.950073
2022-11-09T06:35:21.018Z,7.03064
2022-11-09T06:36:30.723Z,7.211914
2022-11-09T06:37:39.477Z,7.362976
2022-11-09T06:38:49.261Z,7.473755
2022-11-09T06:39:59.011Z,7.514038
2022-11-09T06:41:07.757Z,7.604675
2022-11-09T06:42:15.506Z,7.685242
2022-11-09T06:43:25.383Z,7.78595
2022-11-09T06:44:35.095Z,7.846375
2022-11-09T06:45:43.007Z,7.926941
2022-11-09T06:46:52.713Z,7.977295
2022-11-09T06:48:00.467Z,8.088074
2022-11-09T06:49:08.187Z,8.178711
2022-11-09T06:50:17.931Z,8.279419
2022-11-09T06:51:26.765Z,8.440552
2022-11-09T06:52:36.523Z,8.641968
2022-11-09T06:53:45.284Z,8.843384
2022-11-09T06:54:55.062Z,9.095154
2022-11-09T06:56:04.838Z,9.356995
2022-11-09T06:57:13.609Z,9.608765
2022-11-09T06:58:22.321Z,9.820251
2022-11-09T06:59:32.100Z,9.729614
2022-11-09T07:00:39.885Z,9.759827
2022-11-09T07:01:49.634Z,9.790039
2022-11-09T07:03:00.326Z,9.830322
2022-11-09T07:04:09.039Z,9.971313
2022-11-09T07:05:18.838Z,10.253296
2022-11-09T07:06:26.666Z,10.505066
2022-11-09T07:07:35.396Z,10.736694
2022-11-09T07:08:45.153Z,10.93811
2022-11-09T07:09:52.925Z,11.069031
2022-11-09T07:11:02.740Z,11.17981
2022-11-09T07:12:12.645Z,11.290588
2022-11-09T07:13:20.733Z,11.320801
2022-11-09T07:14:29.217Z,11.371155
2022-11-09T07:15:36.989Z,11.371155
2022-11-09T07:16:45.733Z,11.451721
2022-11-09T07:17:55.534Z,11.44165
2022-11-09T07:19:04.324Z,11.471863
2022-11-09T07:20:14.117Z,11.401367
2022-11-09T07:21:22.899Z,11.320801
2022-11-09T07:22:30.622Z,11.300659
2022-11-09T07:23:40.413Z,11.250305
2022-11-09T07:24:49.109Z,11.139526
2022-11-09T07:25:57.921Z,11.069031
2022-11-09T07:27:07.602Z,11.069031
2022-11-09T07:28:16.369Z,10.93811
2022-11-09T07:29:26.228Z,10.837402
2022-11-09T07:30:34.956Z,10.746765
2022-11-09T07:31:43.690Z,10.666199
2022-11-09T07:33:08.449Z,10.565491
2022-11-09T07:34:04.229Z,10.505066
2022-11-09T07:35:13.969Z,10.535278
2022-11-09T07:36:23.699Z,10.55542
2022-11-09T07:37:33.478Z,10.494995
2022-11-09T07:38:43.244Z,10.484924
2022-11-09T07:39:53.000Z,10.444641
2022-11-09T07:41:02.825Z,10.464783
2022-11-09T07:42:12.530Z,10.444641
2022-11-09T07:43:22.451Z,10.4245
2022-11-09T07:44:33.019Z,10.414429
2022-11-09T07:45:42.740Z,10.404358
2022-11-09T07:46:50.497Z,10.404358
2022-11-09T07:48:00.338Z,10.414429
2022-11-09T07:49:11.110Z,10.484924
2022-11-09T07:50:18.857Z,10.525208
2022-11-09T07:51:28.573Z,10.565491
2022-11-09T07:52:36.310Z,10.635986
2022-11-09T07:53:45.072Z,10.635986
2022-11-09T07:54:54.806Z,10.706482
2022-11-09T07:56:03.495Z,10.736694
2022-11-09T07:57:12.294Z,10.776978
2022-11-09T07:58:21.987Z,10.80719
2022-11-09T07:59:30.732Z,10.837402
2022-11-09T08:00:39.469Z,10.867615
2022-11-09T08:01:47.295Z,10.917969
2022-11-09T08:02:56.113Z,10.93811
2022-11-09T08:04:05.948Z,10.988464
2022-11-09T08:05:13.640Z,11.038818
2022-11-09T08:06:23.378Z,11.048889
2022-11-09T08:07:32.120Z,11.079102
2022-11-09T08:08:39.884Z,11.119385
2022-11-09T08:09:49.687Z,11.149597
2022-11-09T08:10:58.376Z,11.17981
2022-11-09T08:12:08.172Z,11.18988
2022-11-09T08:13:17.981Z,11.270447
2022-11-09T08:14:27.612Z,11.320801
2022-11-09T08:15:37.391Z,11.401367
2022-11-09T08:16:47.185Z,11.471863
2022-11-09T08:17:55.881Z,11.572571
2022-11-09T08:19:05.633Z,11.663208
2022-11-09T08:20:14.372Z,11.753845
2022-11-09T08:21:23.182Z,11.844482
2022-11-09T08:22:32.921Z,11.94519
2022-11-09T08:23:42.620Z,11.995544
2022-11-09T08:24:52.394Z,12.086182
2022-11-09T08:26:02.173Z,12.146606
2022-11-09T08:27:10.880Z,12.207031
2022-11-09T08:28:20.994Z,12.287598
2022-11-09T08:29:30.372Z,12.31781
2022-11-09T08:30:40.146Z,12.388306
2022-11-09T08:31:49.883Z,12.418518
2022-11-09T08:32:57.687Z,12.458801
2022-11-09T08:34:07.447Z,12.56958
2022-11-09T08:35:16.239Z,12.640076
2022-11-09T08:36:24.982Z,12.720642
2022-11-09T08:37:33.758Z,12.750854
2022-11-09T08:38:41.594Z,12.801208
2022-11-09T08:39:50.372Z,12.871704
2022-11-09T08:41:00.274Z,12.9422
2022-11-09T08:42:10.879Z,12.952271
2022-11-09T08:43:19.648Z,12.911987
2022-11-09T08:44:29.469Z,12.861633
2022-11-09T08:45:39.154Z,12.851562
2022-11-09T08:46:48.885Z,12.911987
2022-11-09T08:47:58.653Z,12.972412
2022-11-09T08:49:06.395Z,13.083191
2022-11-09T08:50:16.111Z,13.234253
2022-11-09T08:51:25.884Z,13.385315
2022-11-09T08:52:34.619Z,13.616943
2022-11-09T08:53:44.436Z,13.808289
2022-11-09T08:54:53.198Z,13.919067
2022-11-09T08:56:02.976Z,13.989563
2022-11-09T08:57:12.757Z,14.070129
2022-11-09T08:58:21.909Z,14.140625
2022-11-09T08:59:31.270Z,14.221191
2022-11-09T09:00:41.060Z,14.20105
2022-11-09T09:01:50.896Z,14.20105
2022-11-09T09:03:00.576Z,14.150696
2022-11-09T09:04:08.385Z,14.0802
2022-11-09T09:05:17.161Z,14.0802
2022-11-09T09:06:30.770Z,14.070129
2022-11-09T09:07:35.739Z,14.070129
2022-11-09T09:08:45.528Z,13.989563
2022-11-09T09:09:55.392Z,13.969421
2022-11-09T09:11:03.136Z,13.929138
2022-11-09T09:12:12.877Z,13.888855
2022-11-09T09:13:21.744Z,13.868713
2022-11-09T09:14:30.503Z,13.848572
2022-11-09T09:15:40.277Z,13.858643
2022-11-09T09:16:49.110Z,13.858643
2022-11-09T09:17:58.855Z,13.888855
2022-11-09T09:19:07.712Z,13.858643
2022-11-09T09:20:15.439Z,13.848572
2022-11-09T09:21:25.188Z,13.82843
2022-11-09T09:22:33.918Z,13.868713
2022-11-09T09:23:42.649Z,13.898926
2022-11-09T09:24:52.468Z,13.929138
2022-11-09T09:26:00.271Z,13.989563
2022-11-09T09:27:10.022Z,13.999634
2022-11-09T09:28:20.093Z,14.049988
2022-11-09T09:29:28.498Z,14.120483
2022-11-09T09:30:38.322Z,14.180908
2022-11-09T09:31:48.049Z,14.251404
2022-11-09T09:32:56.810Z,14.261475
2022-11-09T09:34:06.510Z,14.301758
2022-11-09T09:35:14.273Z,14.321899
2022-11-09T09:36:24.012Z,14.301758
2022-11-09T09:37:32.759Z,14.321899
2022-11-09T09:38:42.532Z,14.352112
2022-11-09T09:39:52.287Z,14.362183
2022-11-09T09:41:01.013Z,14.352112
2022-11-09T09:42:10.886Z,14.372253
2022-11-09T09:43:20.646Z,14.432678
2022-11-09T09:44:29.430Z,14.432678
2022-11-09T09:45:39.145Z,14.442749
2022-11-09T09:46:47.906Z,14.442749
2022-11-09T09:47:56.721Z,14.472961
2022-11-09T09:49:06.547Z,14.513245
2022-11-09T09:50:16.327Z,14.58374
2022-11-09T09:51:25.793Z,14.58374
2022-11-09T09:52:35.582Z,14.593811
2022-11-09T09:53:45.331Z,14.58374
2022-11-09T09:54:55.031Z,14.543457
2022-11-09T09:56:03.796Z,14.58374
2022-11-09T09:57:12.533Z,14.603882
2022-11-09T09:58:22.521Z,14.634094
2022-11-09T09:59:30.224Z,14.664307
2022-11-09T10:00:38.933Z,14.694519
2022-11-09T10:01:48.713Z,14.724731
2022-11-09T10:02:56.473Z,14.765015
2022-11-09T10:04:06.330Z,14.775085
2022-11-09T10:05:15.991Z,14.775085
2022-11-09T10:06:25.755Z,14.785156
2022-11-09T10:07:35.506Z,14.765015
2022-11-09T10:08:43.221Z,14.845581
2022-11-09T10:09:52.029Z,14.906006
2022-11-09T10:11:01.871Z,14.95636
2022-11-09T10:12:11.554Z,15.016785
2022-11-09T10:13:21.301Z,15.057068
2022-11-09T10:14:30.090Z,15.097351
2022-11-09T10:15:38.879Z,15.107422
2022-11-09T10:16:48.669Z,15.026855
2022-11-09T10:17:57.420Z,15.016785
2022-11-09T10:19:06.191Z,15.08728
2022-11-09T10:20:15.922Z,15.107422
2022-11-09T10:21:24.696Z,15.147705
2022-11-09T10:22:34.468Z,15.167847
2022-11-09T10:23:44.237Z,15.167847
2022-11-09T10:25:17.066Z,15.187988
2022-11-09T10:26:06.191Z,15.238342
2022-11-09T10:27:15.347Z,15.359192
2022-11-09T10:28:24.096Z,15.288696
2022-11-09T10:29:34.797Z,15.328979
2022-11-09T10:30:44.544Z,15.349121
2022-11-09T10:31:54.287Z,15.328979
2022-11-09T10:33:03.097Z,15.187988
2022-11-09T10:34:10.871Z,15.167847
2022-11-09T10:35:20.687Z,15.167847
2022-11-09T10:36:29.467Z,15.238342
2022-11-09T10:37:39.149Z,15.288696
2022-11-09T10:38:49.064Z,15.308838
2022-11-09T10:39:57.834Z,15.278625
2022-11-09T10:41:07.523Z,15.328979
2022-11-09T10:42:17.274Z,15.349121
2022-11-09T10:43:27.029Z,15.359192
2022-11-09T10:44:36.784Z,15.4599
2022-11-09T10:45:46.641Z,15.550537
2022-11-09T10:46:56.398Z,15.550537
2022-11-09T10:48:07.282Z,15.550537
2022-11-09T10:49:16.074Z,15.58075
2022-11-09T10:50:23.807Z,15.641174
2022-11-09T10:51:33.739Z,15.721741
2022-11-09T10:52:47.430Z,15.762024
2022-11-09T10:53:53.179Z,15.802307
2022-11-09T10:55:02.939Z,15.772095
2022-11-09T10:56:11.950Z,15.762024
2022-11-09T10:57:21.422Z,15.772095
2022-11-09T10:58:29.152Z,15.731812
2022-11-09T10:59:36.896Z,15.751953
2022-11-09T11:00:46.611Z,15.903015
2022-11-09T11:01:59.527Z,16.044006
2022-11-09T11:03:04.184Z,16.174927
2022-11-09T11:04:13.923Z,16.34613
2022-11-09T11:05:22.651Z,16.607971
2022-11-09T11:06:32.458Z,16.900024
2022-11-09T11:07:41.191Z,17.121582
2022-11-09T11:08:50.943Z,17.443848
2022-11-09T11:10:00.694Z,17.735901
2022-11-09T11:11:31.937Z,18.078308
2022-11-09T11:12:20.161Z,18.330078
2022-11-09T11:13:29.958Z,18.471069
2022-11-09T11:14:37.746Z,18.682556
2022-11-09T11:15:47.449Z,18.954468
2022-11-09T11:16:56.245Z,19.206238
2022-11-09T11:18:05.952Z,19.256592
2022-11-09T11:19:15.716Z,19.135742
2022-11-09T11:20:23.448Z,19.075317
2022-11-09T11:21:32.347Z,19.075317
2022-11-09T11:22:42.081Z,19.115601
2022-11-09T11:23:49.817Z,19.075317
2022-11-09T11:24:59.569Z,19.115601
2022-11-09T11:26:09.376Z,19.296875
2022-11-09T11:27:18.200Z,19.115601
2022-11-09T11:28:27.947Z,18.742981
2022-11-09T11:29:35.727Z,18.662415
2022-11-09T11:30:44.511Z,18.622131
2022-11-09T11:31:54.275Z,18.783264
2022-11-09T11:33:03.002Z,18.994751
2022-11-09T11:34:16.363Z,19.075317
2022-11-09T11:35:23.478Z,19.216309
2022-11-09T11:36:32.250Z,19.48822
2022-11-09T11:37:42.011Z,19.73999
2022-11-09T11:38:51.796Z,19.941406
2022-11-09T11:40:01.649Z,20.001831
2022-11-09T11:41:11.448Z,19.99176
2022-11-09T11:42:20.178Z,19.699707
2022-11-09T11:43:28.972Z,19.407654
2022-11-09T11:44:38.709Z,19.558716
2022-11-09T11:45:48.426Z,19.48822
2022-11-09T11:46:58.263Z,19.48822
2022-11-09T11:48:07.029Z,19.145813
2022-11-09T11:49:15.840Z,19.216309
2022-11-09T11:50:25.581Z,19.397583
2022-11-09T11:51:34.337Z,19.629211
2022-11-09T11:52:44.057Z,19.961548
2022-11-09T11:53:52.911Z,20.11261
2022-11-09T11:55:00.737Z,20.344238
2022-11-09T11:56:10.558Z,20.505371
2022-11-09T11:57:20.187Z,20.696716
2022-11-09T11:58:29.939Z,20.877991
2022-11-09T11:59:39.684Z,20.958557
2022-11-09T12:00:48.467Z,21.029053
2022-11-09T12:01:58.325Z,21.290894
2022-11-09T12:03:07.163Z,21.452026
2022-11-09T12:04:15.854Z,21.613159
2022-11-09T12:05:26.591Z,21.351318
2022-11-09T12:06:35.520Z,21.431885
2022-11-09T12:07:45.011Z,21.522522
2022-11-09T12:08:55.718Z,21.321106
2022-11-09T12:10:05.568Z,21.321106
2022-11-09T12:11:15.289Z,20.807495
2022-11-09T12:12:25.017Z,20.847778
2022-11-09T12:13:32.731Z,21.109619
2022-11-09T12:14:43.446Z,21.270752
2022-11-09T12:15:51.209Z,21.391602
2022-11-09T12:16:59.925Z,21.462097
2022-11-09T12:18:09.645Z,21.401672
2022-11-09T12:19:20.453Z,21.693726
2022-11-09T12:20:28.063Z,21.885071
2022-11-09T12:21:36.843Z,22.015991
2022-11-09T12:22:45.569Z,22.25769
2022-11-09T12:23:55.355Z,22.539673
2022-11-09T12:25:04.078Z,22.731018
2022-11-09T12:26:15.577Z,22.932434
2022-11-09T12:27:31.919Z,22.801514
2022-11-09T12:28:34.208Z,22.831726
2022-11-09T12:29:43.982Z,22.982788
2022-11-09T12:30:52.735Z,23.033142
2022-11-09T12:32:00.538Z,22.962646
2022-11-09T12:33:10.251Z,22.63031
2022-11-09T12:34:19.979Z,22.408752
2022-11-09T12:35:28.793Z,22.388611
2022-11-09T12:36:38.616Z,22.25769
2022-11-09T12:37:48.361Z,21.75415
2022-11-09T12:38:58.191Z,21.643372
2022-11-09T12:40:07.863Z,21.703796
2022-11-09T12:41:17.641Z,21.723938
2022-11-09T12:42:27.426Z,21.50238
2022-11-09T12:43:37.301Z,21.149902
2022-11-09T12:44:43.987Z,21.069336
2022-11-09T12:45:53.868Z,20.837708
2022-11-09T12:47:02.957Z,20.686646
2022-11-09T12:48:11.709Z,20.505371
2022-11-09T12:49:21.603Z,20.223389
2022-11-09T12:50:30.346Z,20.162964
2022-11-09T12:51:40.091Z,20.223389
2022-11-09T12:52:49.905Z,20.183105
2022-11-09T12:53:59.680Z,20.223389
2022-11-09T12:55:09.486Z,20.283813
2022-11-09T12:56:19.289Z,20.283813
2022-11-09T12:57:27.007Z,20.324097
2022-11-09T12:58:36.843Z,20.293884
2022-11-09T12:59:46.660Z,20.193176
2022-11-09T13:00:55.367Z,19.911194
2022-11-09T13:02:05.244Z,19.850769
2022-11-09T13:03:13.880Z,19.73999
2022-11-09T13:04:23.680Z,19.73999
2022-11-09T13:05:32.424Z,19.790344
2022-11-09T13:06:41.151Z,19.921265
2022-11-09T13:07:50.840Z,20.042114
2022-11-09T13:08:59.593Z,20.102539
2022-11-09T13:10:08.333Z,20.032043
2022-11-09T13:11:18.115Z,20.072327
2022-11-09T13:12:25.925Z,19.99176
2022-11-09T13:13:35.663Z,20.001831
2022-11-09T13:14:45.389Z,20.001831
2022-11-09T13:15:54.181Z,20.102539
2022-11-09T13:17:03.973Z,20.162964
2022-11-09T13:18:12.761Z,20.223389
2022-11-09T13:19:22.497Z,20.223389
2022-11-09T13:20:53.148Z,20.162964
2022-11-09T13:21:43.040Z,19.951477
2022-11-09T13:22:52.798Z,19.941406
2022-11-09T13:24:04.524Z,19.850769